Time;durP1;ratioP1;P1;durP2;ratioP2;P2;SDS_P1;SDS_P2;PMS_P1;PMS_P2;Temp;Humidity;BMP_temperature;BMP_pressure;BME280_temperature;BME280_humidity;BME280_pressure;Samples;Min_cycle;Max_cycle;Signal;HPM_P1;HPM_P2
2022/01/18 00:01:52;;;;;;;5.83;1.60;;;;;;;0.50;65.36;100628.34;5118072;22;20280;-63
2022/01/18 00:04:20;;;;;;;10.73;1.83;;;;;;;0.42;65.69;100628.72;5126508;22;20202;-62
2022/01/18 00:06:50;;;;;;;5.57;1.57;;;;;;;0.43;66.23;100629.59;5141105;22;21735;-62
2022/01/18 00:09:21;;;;;;;7.33;1.50;;;;;;;0.46;66.15;100632.03;5087819;22;20202;-62
2022/01/18 00:11:56;;;;;;;6.93;1.80;;;;;;;0.48;65.87;100624.97;5110059;22;20261;-63
2022/01/18 00:14:40;;;;;;;7.20;1.63;;;;;;;0.37;66.30;100623.72;5120136;22;20202;-65
2022/01/18 00:17:34;;;;;;;5.73;1.50;;;;;;;0.34;66.30;100630.88;5112446;22;20269;-62
2022/01/18 00:20:01;;;;;;;6.47;1.60;;;;;;;0.38;66.41;100629.81;5134537;22;21519;-66
2022/01/18 00:22:28;;;;;;;7.03;1.50;;;;;;;0.31;66.98;100638.88;5117892;22;21657;-63
2022/01/18 00:24:58;;;;;;;7.57;1.60;;;;;;;0.29;67.15;100625.88;5130847;22;20211;-63
2022/01/18 00:27:26;;;;;;;5.93;1.40;;;;;;;0.34;67.03;100626.47;5110304;22;20202;-61
2022/01/18 00:30:06;;;;;;;6.90;1.80;;;;;;;0.23;67.26;100630.53;5121865;22;20221;-60
2022/01/18 00:35:00;;;;;;;6.97;1.50;;;;;;;0.19;67.86;100637.72;5111453;22;20220;-61
2022/01/18 00:37:33;;;;;;;6.90;1.70;;;;;;;0.25;67.57;100649.63;5117364;22;20586;-62
2022/01/18 00:40:01;;;;;;;5.87;1.57;;;;;;;0.18;67.79;100649.09;5119307;22;21758;-60
2022/01/18 00:42:28;;;;;;;6.23;1.40;;;;;;;0.06;68.73;100654.91;5132668;22;20202;-62
2022/01/18 00:44:54;;;;;;;7.40;2.17;;;;;;;0.12;68.45;100659.88;5122363;22;20198;-62
2022/01/18 00:47:21;;;;;;;9.57;2.00;;;;;;;0.07;68.81;100665.31;5116191;22;20205;-62
2022/01/18 00:49:49;;;;;;;12.27;2.00;;;;;;;0.02;69.76;100662.03;5126084;22;20339;-62
2022/01/18 00:52:19;;;;;;;9.97;2.40;;;;;;;-0.06;70.23;100667.63;5096927;22;20678;-63
2022/01/18 00:54:46;;;;;;;10.53;2.57;;;;;;;0.02;70.51;100675.13;5115466;22;21260;-62
2022/01/18 00:57:13;;;;;;;8.33;1.87;;;;;;;-0.02;70.07;100679.66;5119639;22;20249;-61
2022/01/18 00:59:41;;;;;;;10.20;2.47;;;;;;;-0.16;71.24;100682.06;5120777;22;20209;-61
2022/01/18 01:02:15;;;;;;;9.43;2.70;;;;;;;-0.21;71.81;100694.50;5137363;22;20290;-63
2022/01/18 01:04:47;;;;;;;9.43;2.30;;;;;;;-0.13;71.87;100702.84;5103098;22;20200;-63
2022/01/18 01:07:20;;;;;;;13.07;2.87;;;;;;;-0.18;71.52;100702.22;5127603;22;21117;-64
2022/01/18 01:09:47;;;;;;;11.53;2.60;;;;;;;-0.25;71.84;100706.03;5126031;22;20200;-63
2022/01/18 01:12:14;;;;;;;11.30;3.00;;;;;;;-0.33;72.40;100697.66;5109134;22;20248;-63
2022/01/18 01:14:42;;;;;;;10.47;2.53;;;;;;;-0.32;71.83;100707.22;5122465;22;20202;-64
2022/01/18 01:17:27;;;;;;;8.63;2.80;;;;;;;-0.35;72.38;100718.66;5138848;22;20205;-63
2022/01/18 01:34:05;;;;;;;15.33;3.37;;;;;;;-0.71;73.81;100729.78;5158261;22;20953;-61
2022/01/18 01:42:03;;;;;;;10.37;3.47;;;;;;;-0.85;74.41;100734.75;5126977;22;21663;-62
2022/01/18 01:44:52;;;;;;;13.67;3.57;;;;;;;-0.94;74.93;100736.00;5130669;22;20217;-63
2022/01/18 01:47:22;;;;;;;10.50;3.43;;;;;;;-0.93;74.79;100742.94;5137399;22;21142;-63
2022/01/18 01:49:51;;;;;;;12.27;4.03;;;;;;;-1.06;75.09;100736.50;5118668;22;20205;-63
2022/01/18 01:52:20;;;;;;;13.83;3.57;;;;;;;-1.02;75.21;100737.25;5117503;22;22091;-63
2022/01/18 01:54:46;;;;;;;13.80;3.60;;;;;;;-1.15;76.05;100736.88;5113389;22;20206;-66
2022/01/18 01:57:13;;;;;;;14.80;4.23;;;;;;;-1.17;76.31;100743.94;5111665;22;25417;-63
2022/01/18 01:59:40;;;;;;;12.83;4.00;;;;;;;-1.30;76.64;100739.22;5117449;22;20284;-62
2022/01/18 02:02:07;;;;;;;13.63;4.00;;;;;;;-1.49;77.83;100740.88;5113210;22;20285;-64
2022/01/18 02:04:34;;;;;;;15.87;3.77;;;;;;;-1.55;78.24;100738.50;5110756;22;21750;-61
2022/01/18 02:07:00;;;;;;;10.50;3.60;;;;;;;-1.58;78.72;100736.00;5112247;22;20202;-62
2022/01/18 02:09:27;;;;;;;13.50;4.20;;;;;;;-1.75;79.18;100742.72;5143101;22;20295;-63
2022/01/18 02:11:56;;;;;;;12.87;3.70;;;;;;;-1.77;79.68;100748.91;5118545;22;20202;-62
2022/01/18 02:14:24;;;;;;;11.50;4.10;;;;;;;-1.79;80.34;100746.38;5098267;22;20482;-62
2022/01/18 02:22:22;;;;;;;13.83;3.97;;;;;;;-2.03;81.50;100734.28;5142740;22;20437;-63
2022/01/18 02:24:49;;;;;;;12.63;4.50;;;;;;;-2.15;82.04;100731.19;5098849;22;20284;-64
2022/01/18 02:27:16;;;;;;;14.27;4.40;;;;;;;-2.10;82.67;100740.63;5082224;22;20453;-62
2022/01/18 02:29:43;;;;;;;11.57;4.40;;;;;;;-2.09;82.64;100747.53;5086014;22;21198;-62
2022/01/18 02:32:10;;;;;;;11.57;4.20;;;;;;;-2.28;83.07;100745.59;5125377;22;20602;-63
2022/01/18 02:34:36;;;;;;;14.97;5.03;;;;;;;-2.26;83.71;100749.00;5112255;22;20202;-62
2022/01/18 02:37:04;;;;;;;16.47;4.60;;;;;;;-2.22;84.00;100755.81;5114147;22;21663;-61
2022/01/18 02:39:31;;;;;;;13.13;4.27;;;;;;;-2.27;83.98;100754.25;5106355;22;20202;-64
2022/01/18 02:42:05;;;;;;;14.17;4.63;;;;;;;-2.25;84.18;100753.28;5118016;22;20204;-64
2022/01/18 02:44:34;;;;;;;10.80;4.30;;;;;;;-2.36;84.22;100755.44;5100118;22;20265;-63
2022/01/18 02:47:01;;;;;;;12.60;4.30;;;;;;;-2.45;85.25;100761.00;5139563;22;20372;-62
2022/01/18 02:49:29;;;;;;;16.77;5.30;;;;;;;-2.37;84.65;100770.22;5118605;22;21346;-64
2022/01/18 02:51:57;;;;;;;15.70;4.50;;;;;;;-2.36;84.28;100766.72;5106377;22;20211;-64
2022/01/18 02:54:24;;;;;;;15.77;4.43;;;;;;;-2.37;84.48;100758.94;5116536;22;20299;-63
2022/01/18 02:56:59;;;;;;;10.50;4.17;;;;;;;-2.35;84.62;100768.41;5110433;22;21591;-62
2022/01/18 02:59:42;;;;;;;15.90;4.53;;;;;;;-2.24;84.15;100757.59;5152102;22;20208;-64
2022/01/18 03:05:09;;;;;;;12.90;3.83;;;;;;;-2.32;84.97;100767.44;5138998;22;20715;-64
2022/01/18 03:07:36;;;;;;;13.17;4.47;;;;;;;-2.27;84.29;100765.53;5115404;22;21779;-62
2022/01/18 03:10:04;;;;;;;18.17;4.90;;;;;;;-2.29;84.53;100767.34;5110802;22;21942;-65
2022/01/18 03:12:31;;;;;;;14.83;4.43;;;;;;;-2.33;84.67;100770.97;5089306;22;24923;-64
2022/01/18 03:14:57;;;;;;;14.43;4.40;;;;;;;-2.34;84.81;100770.13;5128101;22;21548;-64
2022/01/18 03:17:24;;;;;;;12.10;4.07;;;;;;;-2.33;85.01;100769.22;5118842;22;20288;-63
2022/01/18 03:19:51;;;;;;;11.80;3.90;;;;;;;-2.27;84.65;100769.88;5136736;22;20201;-63
2022/01/18 03:22:17;;;;;;;14.97;4.60;;;;;;;-2.31;85.18;100769.16;5102819;22;20414;-63
2022/01/18 03:30:19;;;;;;;11.83;4.00;;;;;;;-2.40;86.21;100792.94;4275444;27;21762;-63
2022/01/18 03:32:45;;;;;;;14.80;4.33;;;;;;;-2.35;85.77;100791.84;4237385;28;20230;-63
2022/01/18 03:35:12;;;;;;;14.47;4.03;;;;;;;-2.34;85.81;100793.56;4268701;28;20407;-64
2022/01/18 03:37:39;;;;;;;14.73;4.03;;;;;;;-2.31;86.02;100794.38;4249132;28;22126;-63
2022/01/18 03:40:10;;;;;;;18.00;4.10;;;;;;;-2.36;86.54;100791.94;4257394;28;25718;-61
2022/01/18 03:45:29;;;;;;;11.63;3.30;;;;;;;-2.42;86.45;100797.34;4250941;28;21792;-64
2022/01/18 03:47:58;;;;;;;11.60;3.40;;;;;;;-2.32;86.38;100809.13;4254927;28;22380;-63
2022/01/18 03:50:24;;;;;;;14.80;4.07;;;;;;;-2.41;86.68;100810.34;4245046;28;20417;-62
2022/01/18 03:52:51;;;;;;;13.40;4.13;;;;;;;-2.43;87.29;100814.75;4239637;28;20295;-62
2022/01/18 03:55:20;;;;;;;12.10;3.77;;;;;;;-2.38;86.93;100822.41;4242787;28;21292;-61
2022/01/18 03:57:47;;;;;;;11.77;3.50;;;;;;;-2.30;86.73;100822.97;4246621;28;21865;-64
2022/01/18 04:00:22;;;;;;;11.97;3.33;;;;;;;-2.36;86.91;100825.81;4246798;28;21548;-63
2022/01/18 04:02:49;;;;;;;14.93;3.80;;;;;;;-2.36;86.85;100823.22;4260637;28;20239;-62
2022/01/18 04:05:16;;;;;;;11.73;3.33;;;;;;;-2.45;87.11;100839.16;4253147;28;20252;-61
2022/01/18 04:07:44;;;;;;;10.40;3.50;;;;;;;-2.47;87.16;100841.81;4251549;28;20230;-64
2022/01/18 04:10:11;;;;;;;13.87;3.80;;;;;;;-2.52;87.79;100845.47;4259415;28;21344;-62
2022/01/18 04:12:37;;;;;;;15.33;4.03;;;;;;;-2.50;87.66;100851.50;4264029;28;20245;-66
2022/01/18 04:15:11;;;;;;;13.67;3.30;;;;;;;-2.45;87.51;100849.59;4245750;28;20280;-63
2022/01/18 04:28:43;;;;;;;9.37;3.20;;;;;;;-2.61;89.12;100863.09;4247194;28;20268;-63
2022/01/18 04:31:10;;;;;;;8.67;2.90;;;;;;;-2.50;88.64;100872.34;4243405;28;20244;-63
2022/01/18 04:33:38;;;;;;;11.40;3.57;;;;;;;-2.44;88.41;100877.31;4201603;28;20355;-64
2022/01/18 04:36:09;;;;;;;11.43;3.10;;;;;;;-2.39;87.97;100876.28;4242645;28;23061;-64
2022/01/18 04:38:36;;;;;;;7.33;2.83;;;;;;;-2.35;88.05;100874.41;4228883;28;20239;-63
2022/01/18 04:41:16;;;;;;;9.93;3.27;;;;;;;-2.34;88.07;100886.56;4234112;28;20235;-63
2022/01/18 04:49:03;;;;;;;12.80;3.40;;;;;;;-2.45;88.78;100902.53;4236245;28;20242;-62
2022/01/18 04:51:30;;;;;;;12.67;3.17;;;;;;;-2.45;88.43;100899.94;4227911;28;20776;-63
2022/01/18 04:53:59;;;;;;;16.53;3.13;;;;;;;-2.48;88.53;100907.88;4224506;28;20405;-65
2022/01/18 04:59:17;;;;;;;10.50;2.73;;;;;;;-2.27;88.10;100919.34;4187287;28;20251;-63
2022/01/18 05:01:47;;;;;;;9.00;2.70;;;;;;;-2.29;87.88;100923.75;4212952;28;20239;-64
2022/01/18 05:04:13;;;;;;;11.70;2.90;;;;;;;-2.23;88.21;100931.34;4228756;28;21757;-62
2022/01/18 05:06:42;;;;;;;10.77;2.77;;;;;;;-2.15;87.97;100937.16;4239144;28;20233;-64
2022/01/18 05:09:09;;;;;;;8.77;2.57;;;;;;;-2.10;87.87;100947.44;4234676;28;20238;-64
2022/01/18 05:11:45;;;;;;;7.10;2.27;;;;;;;-2.07;87.79;100944.72;4224253;28;20242;-63
2022/01/18 05:14:26;;;;;;;15.37;2.63;;;;;;;-1.98;87.51;100948.78;4211407;28;22721;-64
2022/01/18 05:19:40;;;;;;;12.17;2.57;;;;;;;-1.85;87.59;100942.25;4231895;28;20469;-63
2022/01/18 05:24:34;;;;;;;10.07;2.30;;;;;;;-1.84;87.48;100950.91;4217754;28;20303;-63
2022/01/18 05:27:03;;;;;;;5.83;2.00;;;;;;;-1.91;87.15;100948.50;4213992;28;20309;-63
2022/01/18 05:29:29;;;;;;;12.53;2.53;;;;;;;-1.91;87.48;100945.03;4234177;28;20312;-64
2022/01/18 05:31:56;;;;;;;7.40;2.60;;;;;;;-2.03;87.82;100942.88;4240076;28;20250;-63
2022/01/18 05:34:23;;;;;;;8.53;2.53;;;;;;;-2.05;88.60;100949.88;4246071;28;20729;-63
2022/01/18 05:36:49;;;;;;;12.73;2.73;;;;;;;-2.05;88.82;100952.50;4237211;28;20229;-63
2022/01/18 05:39:17;;;;;;;8.47;2.43;;;;;;;-2.07;89.09;100938.66;4237627;28;20280;-63
2022/01/18 05:41:44;;;;;;;9.10;2.33;;;;;;;-2.03;88.84;100951.53;4232382;28;20282;-62
2022/01/18 05:44:10;;;;;;;9.90;2.60;;;;;;;-2.10;89.06;100949.19;4226692;28;20352;-63
2022/01/18 05:46:38;;;;;;;13.60;2.50;;;;;;;-2.04;89.01;100956.78;4236653;28;20226;-62
2022/01/18 05:49:06;;;;;;;9.77;2.53;;;;;;;-2.18;89.48;100947.69;4223475;28;22538;-61
2022/01/18 05:51:34;;;;;;;11.83;2.53;;;;;;;-2.08;89.52;100949.97;4198631;28;20794;-62
2022/01/18 05:54:01;;;;;;;8.97;2.53;;;;;;;-2.07;89.36;100955.16;4228980;28;20273;-63
2022/01/18 05:56:29;;;;;;;11.73;2.70;;;;;;;-2.00;89.22;100959.25;4219366;28;23860;-63
2022/01/18 05:58:59;;;;;;;13.40;2.73;;;;;;;-2.00;89.28;100953.19;4243609;28;20231;-62
2022/01/18 06:01:31;;;;;;;8.70;2.50;;;;;;;-2.08;89.28;100957.78;4244581;28;20227;-64
2022/01/18 06:09:13;;;;;;;9.83;2.50;;;;;;;-2.08;90.02;100958.66;4227339;28;20266;-65
2022/01/18 06:11:40;;;;;;;9.83;2.60;;;;;;;-2.15;90.31;100962.38;4210007;28;20269;-63
2022/01/18 06:14:07;;;;;;;13.00;2.90;;;;;;;-2.13;90.44;100968.41;4227634;28;20243;-62
2022/01/18 06:16:34;;;;;;;8.60;2.30;;;;;;;-2.05;90.41;100969.00;4229619;28;20275;-64
2022/01/18 06:19:00;;;;;;;7.97;2.70;;;;;;;-2.08;90.95;100976.03;4223639;28;20335;-61
2022/01/18 06:21:28;;;;;;;8.27;2.63;;;;;;;-2.02;90.59;100970.63;4225273;28;20234;-66
2022/01/18 06:23:54;;;;;;;14.03;2.30;;;;;;;-2.09;90.48;100969.13;4242675;28;20230;-63
2022/01/18 06:26:21;;;;;;;9.17;2.53;;;;;;;-2.06;90.71;100982.06;4241338;28;20329;-63
2022/01/18 06:28:47;;;;;;;10.63;2.17;;;;;;;-2.00;90.86;100987.09;4229073;28;20326;-63
2022/01/18 06:31:17;;;;;;;7.23;2.43;;;;;;;-2.01;90.45;100974.97;4231281;28;22197;-64
2022/01/18 06:33:43;;;;;;;10.90;2.30;;;;;;;-2.02;90.69;100979.31;4231813;28;20292;-63
2022/01/18 06:36:10;;;;;;;8.00;2.53;;;;;;;-2.02;91.57;100981.91;4258769;28;20308;-61
2022/01/18 06:38:37;;;;;;;7.23;2.30;;;;;;;-1.99;91.15;101000.09;4231409;28;21291;-64
2022/01/18 06:41:04;;;;;;;10.13;2.00;;;;;;;-1.92;90.83;100992.88;4269113;28;20363;-62
2022/01/18 06:43:30;;;;;;;11.40;2.13;;;;;;;-1.86;90.66;100992.69;4236326;28;20227;-63
2022/01/18 06:45:58;;;;;;;10.47;2.50;;;;;;;-1.79;90.65;100990.72;4237006;28;20431;-63
2022/01/18 06:48:25;;;;;;;9.17;2.50;;;;;;;-1.76;90.35;101001.03;4262321;28;20242;-63
2022/01/18 06:50:52;;;;;;;10.13;2.53;;;;;;;-1.89;90.75;101005.00;4290088;28;20248;-62
2022/01/18 06:53:19;;;;;;;9.10;2.20;;;;;;;-1.87;90.92;101009.25;4263381;28;21699;-61
2022/01/18 06:55:51;;;;;;;12.93;2.20;;;;;;;-1.79;90.65;100999.41;4248256;28;21026;-63
2022/01/18 06:58:18;;;;;;;6.83;2.10;;;;;;;-1.80;90.61;101013.34;4264783;28;20245;-65
2022/01/18 07:00:46;;;;;;;10.23;2.07;;;;;;;-1.83;90.71;101012.59;4232902;28;20234;-68
2022/01/18 07:05:41;;;;;;;10.83;2.07;;;;;;;-1.76;90.52;101021.91;4938241;28;20231;-69
2022/01/18 07:08:13;;;;;;;7.37;2.30;;;;;;;-1.64;90.52;101036.28;4920792;28;20240;-70
2022/01/18 07:10:39;;;;;;;8.47;2.30;;;;;;;-1.59;89.77;101034.38;4935893;28;22509;-70
2022/01/18 07:13:09;;;;;;;8.30;2.13;;;;;;;-1.59;89.65;101026.56;4936165;28;20229;-69
2022/01/18 07:15:36;;;;;;;9.30;2.23;;;;;;;-1.51;90.03;101021.94;4930294;28;20237;-67
2022/01/18 07:18:05;;;;;;;8.80;2.07;;;;;;;-1.45;89.30;101037.38;4931646;28;20340;-70
2022/01/18 07:20:33;;;;;;;8.70;2.27;;;;;;;-1.43;89.35;101038.16;4930430;28;20896;-70
2022/01/18 07:23:00;;;;;;;8.17;2.03;;;;;;;-1.33;89.33;101042.16;4934183;28;22087;-68
2022/01/18 07:25:27;;;;;;;10.73;2.60;;;;;;;-1.24;88.60;101046.22;4928518;28;20229;-72
2022/01/18 07:27:54;;;;;;;6.83;2.40;;;;;;;-1.19;88.09;101048.69;4932312;28;20252;-71
2022/01/18 07:30:21;;;;;;;9.93;2.73;;;;;;;-1.16;88.01;101057.22;4928762;28;20268;-70
2022/01/18 07:32:48;;;;;;;7.30;2.27;;;;;;;-1.11;87.70;101063.13;4928300;28;20228;-69
2022/01/18 07:35:14;;;;;;;12.10;2.80;;;;;;;-1.13;87.64;101070.16;4919424;28;20343;-68
2022/01/18 07:37:41;;;;;;;9.57;2.30;;;;;;;-0.98;87.25;101068.78;4929854;28;20369;-69
2022/01/18 07:40:09;;;;;;;9.90;2.47;;;;;;;-1.02;86.89;101075.03;4927668;28;22526;-69
2022/01/18 07:42:35;;;;;;;10.27;2.37;;;;;;;-0.88;86.88;101090.19;4928216;28;20765;-71
2022/01/18 07:45:03;;;;;;;10.60;2.63;;;;;;;-0.77;86.43;101095.00;4931025;28;20316;-71
2022/01/18 07:47:29;;;;;;;8.93;2.20;;;;;;;-0.69;85.78;101109.50;4929400;28;21268;-69
2022/01/18 07:49:56;;;;;;;8.90;1.97;;;;;;;-0.59;85.89;101109.16;4933848;28;20236;-71
2022/01/18 07:52:23;;;;;;;12.17;2.30;;;;;;;-0.60;85.52;101105.72;4928918;28;20951;-69
2022/01/18 07:54:50;;;;;;;9.13;2.10;;;;;;;-0.46;85.06;101111.28;4930850;28;20317;-69
2022/01/18 07:57:16;;;;;;;7.30;2.60;;;;;;;-0.45;85.12;101112.13;4943411;28;20312;-71
2022/01/18 07:59:44;;;;;;;9.50;2.30;;;;;;;-0.39;84.85;101122.34;4929539;28;20229;-69
2022/01/18 08:02:10;;;;;;;11.77;2.70;;;;;;;-0.26;84.32;101117.50;4929470;28;20334;-70
2022/01/18 08:04:37;;;;;;;8.03;2.40;;;;;;;-0.23;83.82;101123.47;4933392;28;20344;-70
2022/01/18 08:07:04;;;;;;;6.67;2.33;;;;;;;-0.07;84.06;101131.59;4930615;28;20898;-69
2022/01/18 08:09:31;;;;;;;6.37;2.00;;;;;;;0.04;83.17;101127.69;4928971;28;20787;-70
2022/01/18 08:11:58;;;;;;;7.27;2.33;;;;;;;0.12;83.14;101141.34;4928261;28;20679;-68
2022/01/18 08:14:29;;;;;;;7.07;2.10;;;;;;;0.31;82.08;101141.44;4927324;28;20297;-71
2022/01/18 08:17:02;;;;;;;8.80;2.37;;;;;;;0.31;81.84;101147.53;4931286;28;20257;-70
2022/01/18 08:19:32;;;;;;;13.13;2.27;;;;;;;0.34;82.26;101149.16;4933207;28;20894;-69
2022/01/18 08:22:04;;;;;;;9.07;2.80;;;;;;;0.37;81.72;101147.25;4933493;28;20228;-71
2022/01/18 08:24:31;;;;;;;7.40;2.03;;;;;;;0.34;81.91;101147.41;4933525;28;20239;-72
2022/01/18 08:26:57;;;;;;;8.50;2.00;;;;;;;0.47;81.39;101162.59;4933102;28;20226;-70
2022/01/18 08:29:24;;;;;;;7.07;2.10;;;;;;;0.24;82.04;101159.16;4931515;28;20710;-70
2022/01/18 08:32:11;;;;;;;9.60;2.40;;;;;;;0.27;82.28;101166.88;4933230;28;20224;-71
2022/01/18 08:34:38;;;;;;;7.27;2.37;;;;;;;0.28;82.00;101168.59;4934267;28;20253;-70
2022/01/18 08:37:05;;;;;;;9.50;2.47;;;;;;;0.20;82.15;101176.72;4931923;28;20653;-72
2022/01/18 08:39:32;;;;;;;14.83;2.93;;;;;;;0.06;82.92;101181.66;4931748;28;20378;-71
2022/01/18 08:41:59;;;;;;;11.70;2.67;;;;;;;0.18;82.88;101178.56;4921585;28;20237;-72
2022/01/18 08:44:26;;;;;;;7.17;2.73;;;;;;;1.03;80.78;101193.44;4930325;28;20228;-70
2022/01/18 08:46:53;;;;;;;13.40;2.60;;;;;;;2.54;75.03;101198.78;4932110;28;21023;-70
2022/01/18 08:49:20;;;;;;;9.57;2.50;;;;;;;3.94;68.83;101215.31;4945207;28;20225;-67
2022/01/18 08:51:46;;;;;;;14.73;2.93;;;;;;;4.62;63.99;101222.09;4932369;28;20874;-66
2022/01/18 08:54:13;;;;;;;10.60;2.70;;;;;;;4.43;62.83;101227.56;4931226;28;20295;-70
2022/01/18 08:56:40;;;;;;;9.43;2.93;;;;;;;5.16;61.15;101234.81;4931681;28;20709;-67
2022/01/18 08:59:22;;;;;;;11.70;2.90;;;;;;;5.31;58.59;101236.53;4933776;28;20220;-66
2022/01/18 09:01:50;;;;;;;8.97;2.60;;;;;;;4.26;60.28;101246.94;4931305;28;20312;-66
2022/01/18 09:04:19;;;;;;;8.63;3.00;;;;;;;3.89;63.66;101248.09;4931992;28;20236;-67
2022/01/18 09:06:50;;;;;;;7.93;2.57;;;;;;;4.77;60.62;101257.28;4931329;28;20255;-64
2022/01/18 09:09:18;;;;;;;11.03;2.23;;;;;;;5.28;58.21;101249.91;4929751;28;20316;-68
2022/01/18 09:11:45;;;;;;;9.90;2.80;;;;;;;5.38;57.44;101261.59;4936269;28;20236;-68
2022/01/18 09:14:13;;;;;;;10.33;2.90;;;;;;;5.69;56.29;101270.34;4929437;28;20232;-67
2022/01/18 09:16:40;;;;;;;10.67;2.80;;;;;;;6.18;55.61;101274.41;4934796;28;20221;-70
2022/01/18 09:19:07;;;;;;;9.97;2.50;;;;;;;6.30;52.17;101276.31;4928220;28;20251;-66
2022/01/18 09:21:34;;;;;;;12.37;3.17;;;;;;;7.32;51.16;101286.44;4929034;28;20225;-68
2022/01/18 09:24:02;;;;;;;10.00;3.53;;;;;;;6.71;51.93;101286.88;4930331;28;20229;-70
2022/01/18 09:26:29;;;;;;;12.50;3.10;;;;;;;7.28;51.04;101287.59;4931514;28;20225;-68
2022/01/18 09:28:56;;;;;;;11.20;3.03;;;;;;;6.65;51.24;101284.66;4916706;28;20224;-69
2022/01/18 09:31:22;;;;;;;11.20;3.13;;;;;;;6.80;52.18;101284.59;4881364;28;20241;-71
2022/01/18 09:33:50;;;;;;;11.20;2.87;;;;;;;8.31;47.68;101294.63;4553033;28;22713;-72
2022/01/18 09:36:17;;;;;;;10.03;3.17;;;;;;;7.30;48.76;101294.47;4177347;28;20317;-70
2022/01/18 09:38:44;;;;;;;9.90;2.90;;;;;;;7.09;49.87;101288.81;4179784;28;20238;-70
2022/01/18 09:41:12;;;;;;;9.80;2.80;;;;;;;6.63;51.76;101307.69;4181689;28;21675;-68
2022/01/18 09:43:40;;;;;;;8.27;2.37;;;;;;;6.95;49.58;101313.56;4183435;28;20218;-70
2022/01/18 09:46:08;;;;;;;11.33;3.03;;;;;;;6.25;52.57;101313.63;4177972;28;20355;-68
2022/01/18 09:48:34;;;;;;;11.70;3.43;;;;;;;6.70;50.85;101322.22;4170603;28;22862;-70
2022/01/18 09:51:01;;;;;;;11.63;3.10;;;;;;;6.66;50.28;101326.00;4201084;28;20248;-70
2022/01/18 09:53:31;;;;;;;10.27;3.00;;;;;;;5.70;53.98;101324.84;4194201;28;20740;-70
2022/01/18 09:55:58;;;;;;;10.37;3.17;;;;;;;4.93;57.01;101325.81;4191949;28;21653;-68
2022/01/18 09:58:24;;;;;;;9.63;2.97;;;;;;;4.42;59.55;101323.34;4176988;29;20231;-71
2022/01/18 10:00:52;;;;;;;12.40;3.30;;;;;;;4.52;59.71;101327.19;4208295;28;20244;-71
2022/01/18 10:03:33;;;;;;;12.43;3.30;;;;;;;4.26;60.50;101325.09;4236448;29;21018;-70
2022/01/18 10:06:01;;;;;;;9.73;3.33;;;;;;;4.09;60.83;101324.22;4214673;28;20778;-69
2022/01/18 10:08:38;;;;;;;8.10;3.23;;;;;;;4.34;61.12;101322.94;4296657;28;21160;-67
2022/01/18 10:11:17;;;;;;;11.20;3.57;;;;;;;4.59;61.31;101328.56;4194738;28;21449;-65
2022/01/18 10:13:46;;;;;;;10.67;3.97;;;;;;;4.48;60.10;101319.53;4196735;28;20259;-66
2022/01/18 10:16:20;;;;;;;10.97;3.40;;;;;;;4.26;62.94;101322.47;4212499;28;20429;-66
2022/01/18 10:19:01;;;;;;;9.93;2.70;;;;;;;3.96;65.13;101324.03;4184865;28;20352;-64
2022/01/18 10:21:30;;;;;;;10.17;2.40;;;;;;;4.09;64.46;101329.50;4198112;28;20623;-63
2022/01/18 10:24:25;;;;;;;8.07;3.10;;;;;;;3.95;64.81;101332.00;4189306;28;21521;-55
2022/01/18 10:26:54;;;;;;;9.33;2.90;;;;;;;4.01;64.93;101339.59;4212017;28;21417;-65
2022/01/18 10:29:32;;;;;;;6.63;2.73;;;;;;;4.02;63.21;101338.66;4265468;28;21238;-68
2022/01/18 10:32:08;;;;;;;9.50;2.67;;;;;;;3.78;64.19;101339.00;4217365;28;20249;-65
2022/01/18 10:37:29;;;;;;;10.70;3.53;;;;;;;3.93;64.71;101360.19;4182804;28;21690;-65
2022/01/18 10:40:08;;;;;;;10.43;3.40;;;;;;;3.40;66.49;101363.78;4167182;28;20391;-67
2022/01/18 10:42:49;;;;;;;13.43;3.43;;;;;;;3.77;65.77;101370.69;4185447;28;20234;-67
2022/01/18 10:45:31;;;;;;;9.93;2.80;;;;;;;3.99;64.51;101373.06;4147264;28;20257;-65
2022/01/18 10:48:04;;;;;;;12.43;3.30;;;;;;;3.46;66.62;101376.63;4155263;28;20229;-68
2022/01/18 10:50:43;;;;;;;11.20;3.27;;;;;;;3.63;66.33;101374.03;4162903;28;20742;-64
2022/01/18 10:53:14;;;;;;;13.00;3.30;;;;;;;3.43;67.06;101376.78;4166803;28;20314;-65
2022/01/18 10:55:50;;;;;;;5.13;2.00;;;;;;;3.64;65.58;101383.59;4158981;28;20255;-66
2022/01/18 10:58:19;;;;;;;10.10;2.70;;;;;;;3.49;66.64;101368.56;4160679;28;22928;-68
2022/01/18 11:00:46;;;;;;;20.13;3.27;;;;;;;3.55;65.93;101377.00;4205795;28;20659;-63
2022/01/18 11:03:33;;;;;;;17.47;3.57;;;;;;;3.44;66.58;101368.81;4151724;28;20301;-65
2022/01/18 11:06:15;;;;;;;7.57;3.03;;;;;;;3.92;64.95;101377.78;4135026;28;20249;-64
2022/01/18 11:08:51;;;;;;;10.13;3.03;;;;;;;4.10;64.95;101385.69;4143868;28;21258;-65
2022/01/18 11:11:25;;;;;;;8.47;2.70;;;;;;;3.90;64.54;101386.69;4289904;28;20248;-67
2022/01/18 11:14:02;;;;;;;12.00;3.33;;;;;;;3.97;63.80;101386.28;4150445;28;20247;-66
2022/01/18 11:16:29;;;;;;;11.40;3.03;;;;;;;3.57;65.11;101384.84;4158669;28;21206;-66
2022/01/18 11:18:59;;;;;;;9.67;2.80;;;;;;;3.65;65.50;101382.66;4154885;28;20312;-64
2022/01/18 11:21:32;;;;;;;16.47;3.70;;;;;;;3.22;67.47;101387.41;4146696;28;20234;-66
2022/01/18 11:24:00;;;;;;;8.90;3.07;;;;;;;3.29;66.91;101393.25;4146130;28;23022;-65
2022/01/18 11:26:28;;;;;;;13.77;2.77;;;;;;;3.25;66.64;101392.53;4152191;28;20670;-66
2022/01/18 11:29:01;;;;;;;10.00;2.50;;;;;;;3.46;66.23;101397.66;4151697;28;20234;-64
2022/01/18 11:31:28;;;;;;;13.57;3.17;;;;;;;3.56;65.77;101397.16;4146414;28;20269;-65
2022/01/18 11:33:59;;;;;;;11.33;2.90;;;;;;;3.56;65.90;101396.31;4164781;28;20254;-65
2022/01/18 11:36:30;;;;;;;13.73;2.40;;;;;;;3.53;65.77;101407.81;4171078;28;21735;-66
2022/01/18 11:39:01;;;;;;;21.37;2.90;;;;;;;3.49;65.54;101398.38;4192863;28;20286;-66
2022/01/18 11:41:34;;;;;;;7.90;2.53;;;;;;;3.43;66.13;101403.09;4162819;28;20238;-65
2022/01/18 11:44:19;;;;;;;9.73;2.73;;;;;;;3.31;66.90;101404.53;4217246;28;22379;-65
2022/01/18 11:46:48;;;;;;;12.83;3.73;;;;;;;3.55;65.78;101410.38;4186544;28;20295;-66
2022/01/18 11:49:21;;;;;;;14.77;3.60;;;;;;;3.32;66.15;101399.19;4228888;28;23817;-63
2022/01/18 11:51:54;;;;;;;12.50;3.50;;;;;;;3.27;66.86;101402.97;4193622;29;20311;-64
2022/01/18 11:55:00;;;;;;;19.97;3.60;;;;;;;3.26;67.48;101398.66;4187773;28;20237;-65
2022/01/18 11:57:27;;;;;;;13.30;3.50;;;;;;;3.16;67.42;101400.84;4224498;28;20249;-66
2022/01/18 12:00:18;;;;;;;13.27;3.23;;;;;;;2.98;68.70;101396.50;4211244;28;20296;-68
2022/01/18 12:02:47;;;;;;;9.53;3.33;;;;;;;3.35;67.56;101395.59;4182267;28;20555;-64
2022/01/18 12:05:20;;;;;;;8.57;3.23;;;;;;;3.49;67.08;101398.38;4212178;28;20236;-63
2022/01/18 12:07:58;;;;;;;12.13;3.93;;;;;;;3.72;66.52;101393.72;4178875;28;20254;-65
2022/01/18 12:10:29;;;;;;;13.30;3.30;;;;;;;3.60;66.13;101405.72;4177936;28;20239;-64
2022/01/18 12:13:01;;;;;;;21.77;4.40;;;;;;;3.57;67.42;101405.91;4176448;28;25268;-66
2022/01/18 12:15:33;;;;;;;13.10;3.70;;;;;;;3.38;67.98;101404.16;4170726;28;20240;-66
2022/01/18 12:18:02;;;;;;;10.23;3.17;;;;;;;3.37;67.51;101413.00;4170953;28;20304;-65
2022/01/18 12:20:35;;;;;;;8.57;3.03;;;;;;;3.37;67.86;101420.88;4168705;28;21329;-69
2022/01/18 12:23:09;;;;;;;12.40;3.40;;;;;;;3.10;68.93;101428.31;4221812;28;22937;-65
2022/01/18 12:25:40;;;;;;;13.57;3.73;;;;;;;3.10;68.54;101423.06;4200427;28;20243;-66
2022/01/18 12:28:36;;;;;;;13.27;3.27;;;;;;;3.26;68.68;101432.84;4207931;28;20248;-64
2022/01/18 12:31:22;;;;;;;11.40;3.60;;;;;;;3.29;68.49;101432.69;4194482;28;21808;-68
2022/01/18 12:33:51;;;;;;;13.57;3.50;;;;;;;3.24;68.50;101438.19;4218204;28;20235;-64
2022/01/18 12:36:31;;;;;;;11.67;3.00;;;;;;;3.32;68.87;101433.38;4208503;28;20238;-65
2022/01/18 12:38:59;;;;;;;17.30;3.77;;;;;;;3.15;69.63;101441.25;4181628;28;20235;-65
2022/01/18 12:41:57;;;;;;;10.53;3.63;;;;;;;3.23;69.35;101439.13;4212528;28;20564;-64
2022/01/18 12:44:24;;;;;;;19.40;4.23;;;;;;;3.30;69.59;101451.06;4231304;28;22401;-66
2022/01/18 12:46:58;;;;;;;16.13;3.40;;;;;;;3.33;68.64;101448.25;4157670;28;20253;-65
2022/01/18 12:49:26;;;;;;;11.97;3.23;;;;;;;3.33;68.54;101452.69;4179792;28;20314;-70
2022/01/18 12:52:10;;;;;;;16.53;3.87;;;;;;;3.08;69.91;101450.34;4275449;28;20804;-72